sensor_id;sensor_type;location;lat;lon;timestamp;temperature;humidity
79024;DHT22;70306;44.764;37.688;2023-12-29T00:00:03;6.16;83.61
79024;DHT22;70306;44.764;37.688;2023-12-29T00:01:07;6.25;83.27
79024;DHT22;70306;44.764;37.688;2023-12-29T00:02:08;6.26;82.89
79024;DHT22;70306;44.764;37.688;2023-12-29T00:03:10;6.26;82.85
79024;DHT22;70306;44.764;37.688;2023-12-29T00:04:12;6.33;82.74
79024;DHT22;70306;44.764;37.688;2023-12-29T00:05:13;6.37;82.83
79024;DHT22;70306;44.764;37.688;2023-12-29T00:06:15;6.43;82.85
79024;DHT22;70306;44.764;37.688;2023-12-29T00:07:17;6.46;82.96
79024;DHT22;70306;44.764;37.688;2023-12-29T00:08:18;6.54;82.96
79024;DHT22;70306;44.764;37.688;2023-12-29T00:09:20;6.60;83.10
79024;DHT22;70306;44.764;37.688;2023-12-29T00:10:22;6.67;82.84
79024;DHT22;70306;44.764;37.688;2023-12-29T00:11:23;6.67;82.53
79024;DHT22;70306;44.764;37.688;2023-12-29T00:12:25;6.70;82.53
79024;DHT22;70306;44.764;37.688;2023-12-29T00:13:27;6.71;82.26
79024;DHT22;70306;44.764;37.688;2023-12-29T00:14:28;6.75;82.21
79024;DHT22;70306;44.764;37.688;2023-12-29T00:15:30;6.80;82.13
79024;DHT22;70306;44.764;37.688;2023-12-29T00:16:31;6.84;82.03
79024;DHT22;70306;44.764;37.688;2023-12-29T00:17:33;6.89;81.64
79024;DHT22;70306;44.764;37.688;2023-12-29T00:18:38;6.89;81.59
79024;DHT22;70306;44.764;37.688;2023-12-29T00:19:40;6.93;81.68
79024;DHT22;70306;44.764;37.688;2023-12-29T00:20:42;7.00;81.77
79024;DHT22;70306;44.764;37.688;2023-12-29T00:21:43;7.02;81.60
79024;DHT22;70306;44.764;37.688;2023-12-29T00:22:45;7.05;81.71
79024;DHT22;70306;44.764;37.688;2023-12-29T00:23:47;7.09;81.72
79024;DHT22;70306;44.764;37.688;2023-12-29T00:24:49;7.10;81.77
79024;DHT22;70306;44.764;37.688;2023-12-29T00:25:51;7.16;81.83
79024;DHT22;70306;44.764;37.688;2023-12-29T00:26:53;7.22;81.96
79024;DHT22;70306;44.764;37.688;2023-12-29T00:27:55;7.20;81.90
79024;DHT22;70306;44.764;37.688;2023-12-29T00:28:56;7.27;81.64
79024;DHT22;70306;44.764;37.688;2023-12-29T00:29:59;7.26;81.57
79024;DHT22;70306;44.764;37.688;2023-12-29T00:31:00;7.30;81.83
79024;DHT22;70306;44.764;37.688;2023-12-29T00:32:02;7.34;81.77
79024;DHT22;70306;44.764;37.688;2023-12-29T00:33:04;7.40;81.70
79024;DHT22;70306;44.764;37.688;2023-12-29T00:34:06;7.40;81.77
79024;DHT22;70306;44.764;37.688;2023-12-29T00:35:08;7.44;81.71
79024;DHT22;70306;44.764;37.688;2023-12-29T00:36:16;7.46;81.46
79024;DHT22;70306;44.764;37.688;2023-12-29T00:37:18;7.47;81.77
79024;DHT22;70306;44.764;37.688;2023-12-29T00:38:20;7.52;81.58
79024;DHT22;70306;44.764;37.688;2023-12-29T00:39:22;7.52;81.51
79024;DHT22;70306;44.764;37.688;2023-12-29T00:40:29;7.55;81.43
79024;DHT22;70306;44.764;37.688;2023-12-29T00:41:32;7.58;81.22
79024;DHT22;70306;44.764;37.688;2023-12-29T00:42:33;7.58;81.21
79024;DHT22;70306;44.764;37.688;2023-12-29T00:43:35;7.62;81.60
79024;DHT22;70306;44.764;37.688;2023-12-29T00:44:37;7.67;81.31
79024;DHT22;70306;44.764;37.688;2023-12-29T00:45:39;7.65;80.92
79024;DHT22;70306;44.764;37.688;2023-12-29T00:46:41;7.64;81.23
79024;DHT22;70306;44.764;37.688;2023-12-29T00:47:42;7.67;81.21
79024;DHT22;70306;44.764;37.688;2023-12-29T00:48:45;7.65;81.03
79024;DHT22;70306;44.764;37.688;2023-12-29T00:49:47;7.69;81.23
79024;DHT22;70306;44.764;37.688;2023-12-29T00:50:49;7.72;81.20
79024;DHT22;70306;44.764;37.688;2023-12-29T00:51:51;7.71;80.87
79024;DHT22;70306;44.764;37.688;2023-12-29T00:52:54;7.72;80.83
79024;DHT22;70306;44.764;37.688;2023-12-29T00:53:56;7.72;80.65
79024;DHT22;70306;44.764;37.688;2023-12-29T00:54:57;7.75;80.77
79024;DHT22;70306;44.764;37.688;2023-12-29T00:55:59;7.75;80.91
79024;DHT22;70306;44.764;37.688;2023-12-29T00:57:01;7.77;80.74
79024;DHT22;70306;44.764;37.688;2023-12-29T00:58:03;7.81;80.85
79024;DHT22;70306;44.764;37.688;2023-12-29T00:59:05;7.79;80.82
79024;DHT22;70306;44.764;37.688;2023-12-29T01:00:11;7.81;80.75
79024;DHT22;70306;44.764;37.688;2023-12-29T01:01:13;7.81;80.34
79024;DHT22;70306;44.764;37.688;2023-12-29T01:02:15;7.81;80.52
79024;DHT22;70306;44.764;37.688;2023-12-29T01:03:17;7.81;80.01
79024;DHT22;70306;44.764;37.688;2023-12-29T01:04:18;7.82;80.18
79024;DHT22;70306;44.764;37.688;2023-12-29T01:05:20;7.81;80.06
79024;DHT22;70306;44.764;37.688;2023-12-29T01:06:23;7.83;79.94
79024;DHT22;70306;44.764;37.688;2023-12-29T01:07:25;7.85;79.76
79024;DHT22;70306;44.764;37.688;2023-12-29T01:08:26;7.86;79.60
79024;DHT22;70306;44.764;37.688;2023-12-29T01:09:29;7.88;79.75
79024;DHT22;70306;44.764;37.688;2023-12-29T01:10:31;7.89;79.73
79024;DHT22;70306;44.764;37.688;2023-12-29T01:11:32;7.88;79.79
79024;DHT22;70306;44.764;37.688;2023-12-29T01:12:34;7.92;80.21
79024;DHT22;70306;44.764;37.688;2023-12-29T01:13:36;7.88;80.14
79024;DHT22;70306;44.764;37.688;2023-12-29T01:14:38;7.92;80.17
79024;DHT22;70306;44.764;37.688;2023-12-29T01:15:39;7.92;80.29
79024;DHT22;70306;44.764;37.688;2023-12-29T01:16:45;7.96;80.36
79024;DHT22;70306;44.764;37.688;2023-12-29T01:17:47;7.97;80.55
79024;DHT22;70306;44.764;37.688;2023-12-29T01:18:49;8.00;80.65
79024;DHT22;70306;44.764;37.688;2023-12-29T01:19:50;7.97;80.67
79024;DHT22;70306;44.764;37.688;2023-12-29T01:20:52;7.99;80.69
79024;DHT22;70306;44.764;37.688;2023-12-29T01:21:54;8.02;80.58
79024;DHT22;70306;44.764;37.688;2023-12-29T01:22:57;7.99;80.36
79024;DHT22;70306;44.764;37.688;2023-12-29T01:24:02;8.06;80.65
79024;DHT22;70306;44.764;37.688;2023-12-29T01:25:08;8.07;80.51
79024;DHT22;70306;44.764;37.688;2023-12-29T01:26:10;8.09;80.57
79024;DHT22;70306;44.764;37.688;2023-12-29T01:27:12;8.10;80.53
79024;DHT22;70306;44.764;37.688;2023-12-29T01:28:15;8.10;80.53
79024;DHT22;70306;44.764;37.688;2023-12-29T01:29:17;8.12;80.33
79024;DHT22;70306;44.764;37.688;2023-12-29T01:30:20;8.13;80.22
79024;DHT22;70306;44.764;37.688;2023-12-29T01:31:22;8.07;80.16
79024;DHT22;70306;44.764;37.688;2023-12-29T01:32:24;8.13;80.20
79024;DHT22;70306;44.764;37.688;2023-12-29T01:33:26;8.13;80.17
79024;DHT22;70306;44.764;37.688;2023-12-29T01:34:29;8.13;80.15
79024;DHT22;70306;44.764;37.688;2023-12-29T01:35:35;8.17;80.18
79024;DHT22;70306;44.764;37.688;2023-12-29T01:36:38;8.19;79.86
79024;DHT22;70306;44.764;37.688;2023-12-29T01:37:41;8.16;79.82
79024;DHT22;70306;44.764;37.688;2023-12-29T01:38:43;8.16;79.61
79024;DHT22;70306;44.764;37.688;2023-12-29T01:39:45;8.17;79.84
79024;DHT22;70306;44.764;37.688;2023-12-29T01:40:48;8.17;79.88
79024;DHT22;70306;44.764;37.688;2023-12-29T01:41:50;8.19;80.08
79024;DHT22;70306;44.764;37.688;2023-12-29T01:42:52;8.19;80.29
79024;DHT22;70306;44.764;37.688;2023-12-29T01:44:58;8.24;80.17
79024;DHT22;70306;44.764;37.688;2023-12-29T01:46:00;8.26;80.15
79024;DHT22;70306;44.764;37.688;2023-12-29T01:47:05;8.26;80.04
79024;DHT22;70306;44.764;37.688;2023-12-29T01:48:11;8.27;79.97
79024;DHT22;70306;44.764;37.688;2023-12-29T01:49:15;8.26;79.76
79024;DHT22;70306;44.764;37.688;2023-12-29T01:50:21;8.24;80.03
79024;DHT22;70306;44.764;37.688;2023-12-29T01:51:25;8.26;80.40
79024;DHT22;70306;44.764;37.688;2023-12-29T01:52:28;8.29;80.31
79024;DHT22;70306;44.764;37.688;2023-12-29T01:53:30;8.31;80.42
79024;DHT22;70306;44.764;37.688;2023-12-29T01:54:35;8.31;80.18
79024;DHT22;70306;44.764;37.688;2023-12-29T01:55:39;8.34;80.15
79024;DHT22;70306;44.764;37.688;2023-12-29T01:56:41;8.33;80.12
79024;DHT22;70306;44.764;37.688;2023-12-29T01:57:44;8.34;80.12
79024;DHT22;70306;44.764;37.688;2023-12-29T01:58:49;8.37;80.06
79024;DHT22;70306;44.764;37.688;2023-12-29T01:59:51;8.36;79.99
79024;DHT22;70306;44.764;37.688;2023-12-29T02:00:53;8.37;80.13
79024;DHT22;70306;44.764;37.688;2023-12-29T02:01:55;8.38;79.90
79024;DHT22;70306;44.764;37.688;2023-12-29T02:02:58;8.40;79.86
79024;DHT22;70306;44.764;37.688;2023-12-29T02:04:00;8.41;79.99
79024;DHT22;70306;44.764;37.688;2023-12-29T02:05:03;8.42;80.17
79024;DHT22;70306;44.764;37.688;2023-12-29T02:06:06;8.41;80.46
79024;DHT22;70306;44.764;37.688;2023-12-29T02:07:08;8.42;80.46
79024;DHT22;70306;44.764;37.688;2023-12-29T02:08:11;8.42;80.43
79024;DHT22;70306;44.764;37.688;2023-12-29T02:09:13;8.45;80.28
79024;DHT22;70306;44.764;37.688;2023-12-29T02:10:18;8.47;80.10
79024;DHT22;70306;44.764;37.688;2023-12-29T02:11:21;8.44;80.16
79024;DHT22;70306;44.764;37.688;2023-12-29T02:12:23;8.47;79.95
79024;DHT22;70306;44.764;37.688;2023-12-29T02:13:25;8.47;80.27
79024;DHT22;70306;44.764;37.688;2023-12-29T02:14:27;8.49;80.16
79024;DHT22;70306;44.764;37.688;2023-12-29T02:15:29;8.51;80.14
79024;DHT22;70306;44.764;37.688;2023-12-29T02:16:45;8.49;80.25
79024;DHT22;70306;44.764;37.688;2023-12-29T02:18:00;8.49;80.19
79024;DHT22;70306;44.764;37.688;2023-12-29T02:19:36;8.49;80.31
79024;DHT22;70306;44.764;37.688;2023-12-29T02:20:31;8.51;80.20
79024;DHT22;70306;44.764;37.688;2023-12-29T02:21:33;8.45;80.09
79024;DHT22;70306;44.764;37.688;2023-12-29T02:22:35;8.52;80.29
79024;DHT22;70306;44.764;37.688;2023-12-29T02:23:36;8.49;80.34
79024;DHT22;70306;44.764;37.688;2023-12-29T02:24:39;8.51;80.28
79024;DHT22;70306;44.764;37.688;2023-12-29T02:25:41;8.49;80.13
79024;DHT22;70306;44.764;37.688;2023-12-29T02:26:47;8.49;80.31
79024;DHT22;70306;44.764;37.688;2023-12-29T02:27:59;8.52;80.33
79024;DHT22;70306;44.764;37.688;2023-12-29T02:29:06;8.55;80.34
79024;DHT22;70306;44.764;37.688;2023-12-29T02:31:27;8.59;80.13
79024;DHT22;70306;44.764;37.688;2023-12-29T02:32:32;8.61;80.25
79024;DHT22;70306;44.764;37.688;2023-12-29T02:33:39;8.61;80.09
79024;DHT22;70306;44.764;37.688;2023-12-29T02:34:43;8.62;80.36
79024;DHT22;70306;44.764;37.688;2023-12-29T02:35:46;8.65;80.14
79024;DHT22;70306;44.764;37.688;2023-12-29T02:36:51;8.65;80.22
79024;DHT22;70306;44.764;37.688;2023-12-29T02:37:54;8.69;80.21
79024;DHT22;70306;44.764;37.688;2023-12-29T02:38:57;8.69;80.18
79024;DHT22;70306;44.764;37.688;2023-12-29T02:39:58;8.68;80.13
79024;DHT22;70306;44.764;37.688;2023-12-29T02:41:00;8.71;80.23
79024;DHT22;70306;44.764;37.688;2023-12-29T02:42:02;8.69;80.18
79024;DHT22;70306;44.764;37.688;2023-12-29T02:43:04;8.69;80.20
79024;DHT22;70306;44.764;37.688;2023-12-29T02:44:06;8.73;80.11
79024;DHT22;70306;44.764;37.688;2023-12-29T02:45:08;8.73;80.37
79024;DHT22;70306;44.764;37.688;2023-12-29T02:46:11;8.75;80.29
79024;DHT22;70306;44.764;37.688;2023-12-29T02:47:13;8.77;80.36
79024;DHT22;70306;44.764;37.688;2023-12-29T02:48:15;8.77;80.40
79024;DHT22;70306;44.764;37.688;2023-12-29T02:49:17;8.77;80.07
79024;DHT22;70306;44.764;37.688;2023-12-29T02:50:19;8.80;80.21
79024;DHT22;70306;44.764;37.688;2023-12-29T02:51:21;8.76;80.08
79024;DHT22;70306;44.764;37.688;2023-12-29T02:52:22;8.80;80.29
79024;DHT22;70306;44.764;37.688;2023-12-29T02:53:24;8.79;80.15
79024;DHT22;70306;44.764;37.688;2023-12-29T02:54:26;8.83;80.26
79024;DHT22;70306;44.764;37.688;2023-12-29T02:55:28;8.85;80.12
79024;DHT22;70306;44.764;37.688;2023-12-29T02:56:30;8.87;79.96
79024;DHT22;70306;44.764;37.688;2023-12-29T02:57:32;8.83;80.10
79024;DHT22;70306;44.764;37.688;2023-12-29T02:58:33;8.86;80.00
79024;DHT22;70306;44.764;37.688;2023-12-29T02:59:35;8.86;80.27
79024;DHT22;70306;44.764;37.688;2023-12-29T03:00:38;8.87;79.97
79024;DHT22;70306;44.764;37.688;2023-12-29T03:01:40;8.87;80.07
79024;DHT22;70306;44.764;37.688;2023-12-29T03:02:42;8.89;80.02
79024;DHT22;70306;44.764;37.688;2023-12-29T03:03:44;8.87;80.25
79024;DHT22;70306;44.764;37.688;2023-12-29T03:04:47;8.87;80.31
79024;DHT22;70306;44.764;37.688;2023-12-29T03:05:49;8.92;80.35
79024;DHT22;70306;44.764;37.688;2023-12-29T03:06:50;8.94;80.14
79024;DHT22;70306;44.764;37.688;2023-12-29T03:07:52;8.93;80.10
79024;DHT22;70306;44.764;37.688;2023-12-29T03:08:54;8.94;80.12
79024;DHT22;70306;44.764;37.688;2023-12-29T03:09:56;8.96;79.90
79024;DHT22;70306;44.764;37.688;2023-12-29T03:10:58;8.94;79.82
79024;DHT22;70306;44.764;37.688;2023-12-29T03:12:00;8.94;80.04
79024;DHT22;70306;44.764;37.688;2023-12-29T03:13:02;8.99;80.27
79024;DHT22;70306;44.764;37.688;2023-12-29T03:14:05;8.99;80.14
79024;DHT22;70306;44.764;37.688;2023-12-29T03:15:07;9.00;80.23
79024;DHT22;70306;44.764;37.688;2023-12-29T03:16:09;9.03;79.99
79024;DHT22;70306;44.764;37.688;2023-12-29T03:17:11;9.02;79.91
79024;DHT22;70306;44.764;37.688;2023-12-29T03:18:13;9.00;79.77
79024;DHT22;70306;44.764;37.688;2023-12-29T03:19:15;9.03;79.72
79024;DHT22;70306;44.764;37.688;2023-12-29T03:20:17;9.04;79.59
79024;DHT22;70306;44.764;37.688;2023-12-29T03:21:19;9.06;79.41
79024;DHT22;70306;44.764;37.688;2023-12-29T03:22:20;9.06;79.30
79024;DHT22;70306;44.764;37.688;2023-12-29T03:23:22;9.07;79.11
79024;DHT22;70306;44.764;37.688;2023-12-29T03:24:24;9.06;79.13
79024;DHT22;70306;44.764;37.688;2023-12-29T03:25:26;9.09;79.29
79024;DHT22;70306;44.764;37.688;2023-12-29T03:26:27;9.10;79.26
79024;DHT22;70306;44.764;37.688;2023-12-29T03:27:29;9.07;79.36
79024;DHT22;70306;44.764;37.688;2023-12-29T03:28:31;9.11;79.08
79024;DHT22;70306;44.764;37.688;2023-12-29T03:29:33;9.10;79.03
79024;DHT22;70306;44.764;37.688;2023-12-29T03:30:35;9.13;79.08
79024;DHT22;70306;44.764;37.688;2023-12-29T03:31:37;9.14;79.08
79024;DHT22;70306;44.764;37.688;2023-12-29T03:32:38;9.11;78.95
79024;DHT22;70306;44.764;37.688;2023-12-29T03:33:41;9.13;79.09
79024;DHT22;70306;44.764;37.688;2023-12-29T03:34:43;9.11;79.21
79024;DHT22;70306;44.764;37.688;2023-12-29T03:35:45;9.11;79.28
79024;DHT22;70306;44.764;37.688;2023-12-29T03:36:47;9.14;79.15
79024;DHT22;70306;44.764;37.688;2023-12-29T03:37:48;9.11;79.23
79024;DHT22;70306;44.764;37.688;2023-12-29T03:38:50;9.11;79.19
79024;DHT22;70306;44.764;37.688;2023-12-29T03:39:52;9.13;79.37
79024;DHT22;70306;44.764;37.688;2023-12-29T03:40:54;9.11;79.33
79024;DHT22;70306;44.764;37.688;2023-12-29T03:41:55;9.14;79.31
79024;DHT22;70306;44.764;37.688;2023-12-29T03:42:58;9.13;79.56
79024;DHT22;70306;44.764;37.688;2023-12-29T03:44:00;9.10;79.57
79024;DHT22;70306;44.764;37.688;2023-12-29T03:45:02;9.14;79.52
79024;DHT22;70306;44.764;37.688;2023-12-29T03:46:15;9.10;79.53
79024;DHT22;70306;44.764;37.688;2023-12-29T03:47:17;9.13;79.39
79024;DHT22;70306;44.764;37.688;2023-12-29T03:48:19;9.10;79.42
79024;DHT22;70306;44.764;37.688;2023-12-29T03:49:21;9.11;79.63
79024;DHT22;70306;44.764;37.688;2023-12-29T03:50:23;9.11;79.71
79024;DHT22;70306;44.764;37.688;2023-12-29T03:51:25;9.14;79.70
79024;DHT22;70306;44.764;37.688;2023-12-29T03:52:26;9.17;79.60
79024;DHT22;70306;44.764;37.688;2023-12-29T03:53:28;9.16;79.62
79024;DHT22;70306;44.764;37.688;2023-12-29T03:54:30;9.14;79.50
79024;DHT22;70306;44.764;37.688;2023-12-29T03:55:31;9.13;79.49
79024;DHT22;70306;44.764;37.688;2023-12-29T03:56:33;9.14;79.84
79024;DHT22;70306;44.764;37.688;2023-12-29T03:57:36;9.13;79.59
79024;DHT22;70306;44.764;37.688;2023-12-29T03:58:38;9.16;79.97
79024;DHT22;70306;44.764;37.688;2023-12-29T03:59:40;9.16;79.71
79024;DHT22;70306;44.764;37.688;2023-12-29T04:00:43;9.17;79.70
79024;DHT22;70306;44.764;37.688;2023-12-29T04:01:45;9.19;79.83
79024;DHT22;70306;44.764;37.688;2023-12-29T04:02:47;9.21;80.01
79024;DHT22;70306;44.764;37.688;2023-12-29T04:03:48;9.24;79.83
79024;DHT22;70306;44.764;37.688;2023-12-29T04:04:50;9.23;79.78
79024;DHT22;70306;44.764;37.688;2023-12-29T04:05:53;9.23;79.96
79024;DHT22;70306;44.764;37.688;2023-12-29T04:06:55;9.20;79.80
79024;DHT22;70306;44.764;37.688;2023-12-29T04:07:57;9.21;80.03
79024;DHT22;70306;44.764;37.688;2023-12-29T04:08:58;9.27;80.07
79024;DHT22;70306;44.764;37.688;2023-12-29T04:10:06;9.30;79.87
79024;DHT22;70306;44.764;37.688;2023-12-29T04:11:13;9.32;79.84
79024;DHT22;70306;44.764;37.688;2023-12-29T04:12:15;9.30;79.63
79024;DHT22;70306;44.764;37.688;2023-12-29T04:13:17;9.30;79.55
79024;DHT22;70306;44.764;37.688;2023-12-29T04:14:19;9.28;79.63
79024;DHT22;70306;44.764;37.688;2023-12-29T04:15:20;9.28;79.65
79024;DHT22;70306;44.764;37.688;2023-12-29T04:16:22;9.32;79.59
79024;DHT22;70306;44.764;37.688;2023-12-29T04:17:24;9.34;79.75
79024;DHT22;70306;44.764;37.688;2023-12-29T04:18:26;9.34;79.40
79024;DHT22;70306;44.764;37.688;2023-12-29T04:19:27;9.32;79.33
79024;DHT22;70306;44.764;37.688;2023-12-29T04:20:29;9.31;79.61
79024;DHT22;70306;44.764;37.688;2023-12-29T04:21:32;9.31;79.62
79024;DHT22;70306;44.764;37.688;2023-12-29T04:22:33;9.34;79.67
79024;DHT22;70306;44.764;37.688;2023-12-29T04:23:35;9.34;79.37
79024;DHT22;70306;44.764;37.688;2023-12-29T04:24:40;9.34;79.62
79024;DHT22;70306;44.764;37.688;2023-12-29T04:25:42;9.34;79.52
79024;DHT22;70306;44.764;37.688;2023-12-29T04:26:43;9.37;79.63
79024;DHT22;70306;44.764;37.688;2023-12-29T04:27:47;9.37;79.66
79024;DHT22;70306;44.764;37.688;2023-12-29T04:28:49;9.37;79.58
79024;DHT22;70306;44.764;37.688;2023-12-29T04:29:51;9.37;79.53
79024;DHT22;70306;44.764;37.688;2023-12-29T04:30:52;9.38;79.79
79024;DHT22;70306;44.764;37.688;2023-12-29T04:31:54;9.39;79.67
79024;DHT22;70306;44.764;37.688;2023-12-29T04:32:56;9.39;79.66
79024;DHT22;70306;44.764;37.688;2023-12-29T04:33:57;9.39;79.71
79024;DHT22;70306;44.764;37.688;2023-12-29T04:35:01;9.41;79.46
79024;DHT22;70306;44.764;37.688;2023-12-29T04:36:03;9.41;79.78
79024;DHT22;70306;44.764;37.688;2023-12-29T04:37:05;9.38;79.67
79024;DHT22;70306;44.764;37.688;2023-12-29T04:38:07;9.41;80.00
79024;DHT22;70306;44.764;37.688;2023-12-29T04:39:09;9.41;79.72
79024;DHT22;70306;44.764;37.688;2023-12-29T04:40:11;9.42;79.80
79024;DHT22;70306;44.764;37.688;2023-12-29T04:41:14;9.44;79.77
79024;DHT22;70306;44.764;37.688;2023-12-29T04:42:17;9.42;79.73
79024;DHT22;70306;44.764;37.688;2023-12-29T04:43:19;9.41;79.77
79024;DHT22;70306;44.764;37.688;2023-12-29T04:44:21;9.42;79.79
79024;DHT22;70306;44.764;37.688;2023-12-29T04:45:22;9.44;79.84
79024;DHT22;70306;44.764;37.688;2023-12-29T04:46:24;9.44;79.80
79024;DHT22;70306;44.764;37.688;2023-12-29T04:47:26;9.45;79.80
79024;DHT22;70306;44.764;37.688;2023-12-29T04:48:33;9.44;79.73
79024;DHT22;70306;44.764;37.688;2023-12-29T04:49:34;9.44;79.66
79024;DHT22;70306;44.764;37.688;2023-12-29T04:50:36;9.45;79.65
79024;DHT22;70306;44.764;37.688;2023-12-29T04:51:38;9.46;79.59
79024;DHT22;70306;44.764;37.688;2023-12-29T04:52:40;9.44;79.62
79024;DHT22;70306;44.764;37.688;2023-12-29T04:53:42;9.49;79.35
79024;DHT22;70306;44.764;37.688;2023-12-29T04:54:44;9.48;79.28
79024;DHT22;70306;44.764;37.688;2023-12-29T04:55:45;9.48;79.35
79024;DHT22;70306;44.764;37.688;2023-12-29T04:56:47;9.45;79.30
79024;DHT22;70306;44.764;37.688;2023-12-29T04:57:49;9.46;79.47
79024;DHT22;70306;44.764;37.688;2023-12-29T04:58:53;9.48;79.44
79024;DHT22;70306;44.764;37.688;2023-12-29T04:59:55;9.49;79.34
79024;DHT22;70306;44.764;37.688;2023-12-29T05:00:57;9.49;79.11
79024;DHT22;70306;44.764;37.688;2023-12-29T05:01:58;9.51;79.18
79024;DHT22;70306;44.764;37.688;2023-12-29T05:03:00;9.52;78.98
79024;DHT22;70306;44.764;37.688;2023-12-29T05:04:02;9.54;78.84
79024;DHT22;70306;44.764;37.688;2023-12-29T05:05:04;9.52;78.78
79024;DHT22;70306;44.764;37.688;2023-12-29T05:06:06;9.52;79.14
79024;DHT22;70306;44.764;37.688;2023-12-29T05:07:09;9.52;79.18
79024;DHT22;70306;44.764;37.688;2023-12-29T05:08:10;9.52;79.19
79024;DHT22;70306;44.764;37.688;2023-12-29T05:09:12;9.52;79.35
79024;DHT22;70306;44.764;37.688;2023-12-29T05:10:14;9.55;79.23
79024;DHT22;70306;44.764;37.688;2023-12-29T05:11:16;9.51;79.30
79024;DHT22;70306;44.764;37.688;2023-12-29T05:12:17;9.52;79.44
79024;DHT22;70306;44.764;37.688;2023-12-29T05:13:19;9.54;79.57
79024;DHT22;70306;44.764;37.688;2023-12-29T05:14:21;9.58;79.55
79024;DHT22;70306;44.764;37.688;2023-12-29T05:15:22;9.56;79.20
79024;DHT22;70306;44.764;37.688;2023-12-29T05:16:24;9.58;79.23
79024;DHT22;70306;44.764;37.688;2023-12-29T05:17:26;9.59;79.34
79024;DHT22;70306;44.764;37.688;2023-12-29T05:18:28;9.61;79.28
79024;DHT22;70306;44.764;37.688;2023-12-29T05:19:31;9.63;79.15
79024;DHT22;70306;44.764;37.688;2023-12-29T05:20:33;9.61;79.24
79024;DHT22;70306;44.764;37.688;2023-12-29T05:21:35;9.62;79.12
79024;DHT22;70306;44.764;37.688;2023-12-29T05:22:36;9.65;79.05
79024;DHT22;70306;44.764;37.688;2023-12-29T05:23:38;9.66;79.07
79024;DHT22;70306;44.764;37.688;2023-12-29T05:24:40;9.66;78.99
79024;DHT22;70306;44.764;37.688;2023-12-29T05:25:41;9.66;79.09
79024;DHT22;70306;44.764;37.688;2023-12-29T05:26:43;9.68;79.06
79024;DHT22;70306;44.764;37.688;2023-12-29T05:27:45;9.65;78.98
79024;DHT22;70306;44.764;37.688;2023-12-29T05:28:46;9.65;78.96
79024;DHT22;70306;44.764;37.688;2023-12-29T05:29:48;9.66;79.29
79024;DHT22;70306;44.764;37.688;2023-12-29T05:30:50;9.66;79.09
79024;DHT22;70306;44.764;37.688;2023-12-29T05:31:51;9.69;79.03
79024;DHT22;70306;44.764;37.688;2023-12-29T05:32:53;9.69;79.15
79024;DHT22;70306;44.764;37.688;2023-12-29T05:33:56;9.75;78.96
79024;DHT22;70306;44.764;37.688;2023-12-29T05:34:57;9.75;78.95
79024;DHT22;70306;44.764;37.688;2023-12-29T05:36:05;9.75;78.94
79024;DHT22;70306;44.764;37.688;2023-12-29T05:37:08;9.75;78.95
79024;DHT22;70306;44.764;37.688;2023-12-29T05:38:10;9.73;79.06
79024;DHT22;70306;44.764;37.688;2023-12-29T05:39:11;9.75;79.10
79024;DHT22;70306;44.764;37.688;2023-12-29T05:40:13;9.76;79.18
79024;DHT22;70306;44.764;37.688;2023-12-29T05:41:15;9.75;78.92
79024;DHT22;70306;44.764;37.688;2023-12-29T05:42:17;9.78;78.83
79024;DHT22;70306;44.764;37.688;2023-12-29T05:43:19;9.80;78.68
79024;DHT22;70306;44.764;37.688;2023-12-29T05:44:20;9.80;78.68
79024;DHT22;70306;44.764;37.688;2023-12-29T05:45:22;9.79;78.67
79024;DHT22;70306;44.764;37.688;2023-12-29T05:46:24;9.79;78.77
79024;DHT22;70306;44.764;37.688;2023-12-29T05:47:26;9.80;78.91
79024;DHT22;70306;44.764;37.688;2023-12-29T05:48:27;9.80;78.95
79024;DHT22;70306;44.764;37.688;2023-12-29T05:49:29;9.79;78.77
79024;DHT22;70306;44.764;37.688;2023-12-29T05:50:31;9.80;78.88
79024;DHT22;70306;44.764;37.688;2023-12-29T05:51:38;9.82;78.75
79024;DHT22;70306;44.764;37.688;2023-12-29T05:52:40;9.82;78.75
79024;DHT22;70306;44.764;37.688;2023-12-29T05:53:42;9.80;78.63
79024;DHT22;70306;44.764;37.688;2023-12-29T05:54:44;9.79;78.49
79024;DHT22;70306;44.764;37.688;2023-12-29T05:55:46;9.82;78.55
79024;DHT22;70306;44.764;37.688;2023-12-29T05:56:48;9.82;78.79
79024;DHT22;70306;44.764;37.688;2023-12-29T05:57:49;9.83;79.00
79024;DHT22;70306;44.764;37.688;2023-12-29T05:58:51;9.89;78.95
79024;DHT22;70306;44.764;37.688;2023-12-29T05:59:53;9.85;79.09
79024;DHT22;70306;44.764;37.688;2023-12-29T06:00:55;9.89;79.13
79024;DHT22;70306;44.764;37.688;2023-12-29T06:01:57;9.89;78.79
79024;DHT22;70306;44.764;37.688;2023-12-29T06:02:58;9.90;78.71
79024;DHT22;70306;44.764;37.688;2023-12-29T06:04:00;9.91;78.81
79024;DHT22;70306;44.764;37.688;2023-12-29T06:05:02;9.90;78.66
79024;DHT22;70306;44.764;37.688;2023-12-29T06:06:04;9.90;78.72
79024;DHT22;70306;44.764;37.688;2023-12-29T06:07:06;9.90;78.61
79024;DHT22;70306;44.764;37.688;2023-12-29T06:08:08;9.91;78.57
79024;DHT22;70306;44.764;37.688;2023-12-29T06:09:10;9.91;78.62
79024;DHT22;70306;44.764;37.688;2023-12-29T06:10:11;9.94;78.67
79024;DHT22;70306;44.764;37.688;2023-12-29T06:11:16;9.96;78.66
79024;DHT22;70306;44.764;37.688;2023-12-29T06:12:18;9.96;78.52
79024;DHT22;70306;44.764;37.688;2023-12-29T06:13:20;10.01;78.55
79024;DHT22;70306;44.764;37.688;2023-12-29T06:14:22;10.00;78.37
79024;DHT22;70306;44.764;37.688;2023-12-29T06:15:23;10.03;78.39
79024;DHT22;70306;44.764;37.688;2023-12-29T06:16:25;10.04;78.49
79024;DHT22;70306;44.764;37.688;2023-12-29T06:17:28;10.07;78.47
79024;DHT22;70306;44.764;37.688;2023-12-29T06:18:29;10.06;78.48
79024;DHT22;70306;44.764;37.688;2023-12-29T06:19:31;10.06;78.51
79024;DHT22;70306;44.764;37.688;2023-12-29T06:20:34;10.07;78.66
79024;DHT22;70306;44.764;37.688;2023-12-29T06:21:42;10.07;78.44
79024;DHT22;70306;44.764;37.688;2023-12-29T06:22:44;10.06;78.48
79024;DHT22;70306;44.764;37.688;2023-12-29T06:23:46;10.08;78.51
79024;DHT22;70306;44.764;37.688;2023-12-29T06:24:48;10.07;78.04
79024;DHT22;70306;44.764;37.688;2023-12-29T06:25:49;10.07;77.98
79024;DHT22;70306;44.764;37.688;2023-12-29T06:26:51;10.11;78.24
79024;DHT22;70306;44.764;37.688;2023-12-29T06:27:54;10.15;78.21
79024;DHT22;70306;44.764;37.688;2023-12-29T06:28:56;10.15;78.03
79024;DHT22;70306;44.764;37.688;2023-12-29T06:29:57;10.20;78.08
79024;DHT22;70306;44.764;37.688;2023-12-29T06:30:59;10.18;77.92
79024;DHT22;70306;44.764;37.688;2023-12-29T06:32:02;10.21;77.94
79024;DHT22;70306;44.764;37.688;2023-12-29T06:33:04;10.24;77.93
79024;DHT22;70306;44.764;37.688;2023-12-29T06:34:06;10.24;77.60
79024;DHT22;70306;44.764;37.688;2023-12-29T06:35:08;10.24;77.58
79024;DHT22;70306;44.764;37.688;2023-12-29T06:36:12;10.25;77.75